sensor_id;sensor_type;location;lat;lon;timestamp;pressure;altitude;pressure_sealevel;temperature;humidity
5952;BME280;3001;42.622;23.194;2023-09-19T00:01:32;91718.00;;;18.43;90.23
5952;BME280;3001;42.622;23.194;2023-09-19T00:04:00;91708.19;;;18.28;90.57
5952;BME280;3001;42.622;23.194;2023-09-19T00:06:28;91704.69;;;18.24;91.80
5952;BME280;3001;42.622;23.194;2023-09-19T00:08:57;91708.41;;;18.23;91.91
5952;BME280;3001;42.622;23.194;2023-09-19T00:11:25;91712.03;;;18.30;91.83
5952;BME280;3001;42.622;23.194;2023-09-19T00:13:52;91715.31;;;18.00;93.66
5952;BME280;3001;42.622;23.194;2023-09-19T00:16:20;91711.66;;;18.04;93.93
5952;BME280;3001;42.622;23.194;2023-09-19T00:18:46;91713.19;;;18.05;92.31
5952;BME280;3001;42.622;23.194;2023-09-19T00:21:15;91705.69;;;17.92;92.92
5952;BME280;3001;42.622;23.194;2023-09-19T00:23:42;91699.94;;;17.74;94.04
5952;BME280;3001;42.622;23.194;2023-09-19T00:26:09;91698.19;;;17.66;94.97
5952;BME280;3001;42.622;23.194;2023-09-19T00:28:35;91692.75;;;17.59;95.42
5952;BME280;3001;42.622;23.194;2023-09-19T00:31:02;91679.72;;;17.63;95.50
5952;BME280;3001;42.622;23.194;2023-09-19T00:33:30;91685.53;;;17.56;96.17
5952;BME280;3001;42.622;23.194;2023-09-19T00:35:57;91689.09;;;17.76;96.69
5952;BME280;3001;42.622;23.194;2023-09-19T00:38:26;91691.97;;;17.71;95.42
5952;BME280;3001;42.622;23.194;2023-09-19T00:40:54;91693.69;;;17.79;94.17
5952;BME280;3001;42.622;23.194;2023-09-19T00:43:22;91687.56;;;18.02;93.47
5952;BME280;3001;42.622;23.194;2023-09-19T00:45:52;91689.66;;;17.97;93.26
5952;BME280;3001;42.622;23.194;2023-09-19T00:48:20;91698.75;;;17.99;92.64
5952;BME280;3001;42.622;23.194;2023-09-19T00:50:47;91695.31;;;18.11;92.24
5952;BME280;3001;42.622;23.194;2023-09-19T00:53:17;91693.22;;;18.16;92.63
5952;BME280;3001;42.622;23.194;2023-09-19T00:55:46;91694.63;;;18.14;93.02
5952;BME280;3001;42.622;23.194;2023-09-19T00:58:13;91687.69;;;18.06;93.17
5952;BME280;3001;42.622;23.194;2023-09-19T01:00:40;91683.00;;;17.99;93.86
5952;BME280;3001;42.622;23.194;2023-09-19T01:03:10;91685.56;;;17.84;94.66
5952;BME280;3001;42.622;23.194;2023-09-19T01:05:38;91692.53;;;17.92;93.45
5952;BME280;3001;42.622;23.194;2023-09-19T01:08:06;91688.63;;;17.86;93.26
5952;BME280;3001;42.622;23.194;2023-09-19T01:10:33;91689.31;;;17.83;93.86
5952;BME280;3001;42.622;23.194;2023-09-19T01:13:07;91700.28;;;18.00;92.98
5952;BME280;3001;42.622;23.194;2023-09-19T01:15:44;91695.00;;;17.85;94.18
5952;BME280;3001;42.622;23.194;2023-09-19T01:18:21;91690.84;;;18.11;91.15
5952;BME280;3001;42.622;23.194;2023-09-19T01:20:59;91694.88;;;18.09;91.55
5952;BME280;3001;42.622;23.194;2023-09-19T01:26:31;91693.78;;;18.10;90.98
5952;BME280;3001;42.622;23.194;2023-09-19T01:29:26;91705.00;;;18.22;89.75
5952;BME280;3001;42.622;23.194;2023-09-19T01:32:03;91693.28;;;18.32;88.96
5952;BME280;3001;42.622;23.194;2023-09-19T01:34:43;91667.75;;;18.05;89.77
5952;BME280;3001;42.622;23.194;2023-09-19T01:37:12;91689.97;;;18.07;90.24
5952;BME280;3001;42.622;23.194;2023-09-19T01:39:39;91694.75;;;17.90;90.84
5952;BME280;3001;42.622;23.194;2023-09-19T01:42:13;91691.41;;;18.05;90.73
5952;BME280;3001;42.622;23.194;2023-09-19T01:44:51;91678.78;;;17.83;92.34
5952;BME280;3001;42.622;23.194;2023-09-19T01:47:33;91701.75;;;17.98;91.99
5952;BME280;3001;42.622;23.194;2023-09-19T01:50:06;91696.84;;;18.12;90.56
5952;BME280;3001;42.622;23.194;2023-09-19T01:52:40;91695.84;;;17.89;90.95
5952;BME280;3001;42.622;23.194;2023-09-19T01:55:10;91694.00;;;17.89;90.69
5952;BME280;3001;42.622;23.194;2023-09-19T01:57:42;91693.94;;;18.01;90.18
5952;BME280;3001;42.622;23.194;2023-09-19T02:00:13;91688.25;;;17.99;91.13
5952;BME280;3001;42.622;23.194;2023-09-19T02:02:45;91694.59;;;17.98;91.18
5952;BME280;3001;42.622;23.194;2023-09-19T02:05:13;91694.19;;;17.96;90.48
5952;BME280;3001;42.622;23.194;2023-09-19T02:07:40;91693.25;;;18.04;89.95
5952;BME280;3001;42.622;23.194;2023-09-19T02:10:07;91691.97;;;17.98;90.27
5952;BME280;3001;42.622;23.194;2023-09-19T02:12:35;91687.19;;;17.61;92.37
5952;BME280;3001;42.622;23.194;2023-09-19T02:15:02;91683.72;;;17.45;93.94
5952;BME280;3001;42.622;23.194;2023-09-19T02:17:29;91682.66;;;17.73;93.12
5952;BME280;3001;42.622;23.194;2023-09-19T02:19:57;91683.31;;;17.70;90.23
5952;BME280;3001;42.622;23.194;2023-09-19T02:22:26;91684.03;;;17.83;88.84
5952;BME280;3001;42.622;23.194;2023-09-19T02:24:53;91675.44;;;17.70;89.54
5952;BME280;3001;42.622;23.194;2023-09-19T02:27:20;91680.13;;;17.77;90.49
5952;BME280;3001;42.622;23.194;2023-09-19T02:29:46;91674.47;;;17.63;91.87
5952;BME280;3001;42.622;23.194;2023-09-19T02:32:15;91685.69;;;17.87;89.47
5952;BME280;3001;42.622;23.194;2023-09-19T02:34:43;91684.59;;;17.76;89.38
5952;BME280;3001;42.622;23.194;2023-09-19T02:37:11;91665.91;;;17.78;89.52
5952;BME280;3001;42.622;23.194;2023-09-19T02:39:38;91665.38;;;17.60;90.81
5952;BME280;3001;42.622;23.194;2023-09-19T02:42:05;91660.50;;;17.35;92.60
5952;BME280;3001;42.622;23.194;2023-09-19T02:44:32;91651.75;;;17.31;93.00
5952;BME280;3001;42.622;23.194;2023-09-19T02:47:00;91645.94;;;17.26;93.62
5952;BME280;3001;42.622;23.194;2023-09-19T02:49:27;91645.19;;;17.25;94.55
5952;BME280;3001;42.622;23.194;2023-09-19T02:51:54;91647.31;;;16.96;96.06
5952;BME280;3001;42.622;23.194;2023-09-19T02:54:22;91652.78;;;17.03;95.73
5952;BME280;3001;42.622;23.194;2023-09-19T02:56:49;91653.09;;;17.13;95.22
5952;BME280;3001;42.622;23.194;2023-09-19T02:59:16;91649.72;;;17.13;94.81
5952;BME280;3001;42.622;23.194;2023-09-19T03:01:44;91633.72;;;17.18;94.82
5952;BME280;3001;42.622;23.194;2023-09-19T03:04:13;91636.22;;;17.26;94.67
5952;BME280;3001;42.622;23.194;2023-09-19T03:06:45;91626.47;;;17.39;94.34
5952;BME280;3001;42.622;23.194;2023-09-19T03:09:11;91623.53;;;17.28;94.51
5952;BME280;3001;42.622;23.194;2023-09-19T03:11:40;91620.72;;;17.21;92.79
5952;BME280;3001;42.622;23.194;2023-09-19T03:14:07;91618.72;;;17.30;93.18
5952;BME280;3001;42.622;23.194;2023-09-19T03:16:34;91619.00;;;17.52;92.28
5952;BME280;3001;42.622;23.194;2023-09-19T03:19:03;91631.41;;;17.28;92.97
5952;BME280;3001;42.622;23.194;2023-09-19T03:21:30;91639.16;;;17.48;90.73
5952;BME280;3001;42.622;23.194;2023-09-19T03:23:57;91646.50;;;17.43;90.51
5952;BME280;3001;42.622;23.194;2023-09-19T03:26:24;91649.31;;;17.62;89.91
5952;BME280;3001;42.622;23.194;2023-09-19T03:28:53;91636.53;;;17.48;89.96
5952;BME280;3001;42.622;23.194;2023-09-19T03:31:20;91637.97;;;17.46;89.96
5952;BME280;3001;42.622;23.194;2023-09-19T03:33:46;91643.31;;;17.49;91.11
5952;BME280;3001;42.622;23.194;2023-09-19T03:36:13;91640.97;;;16.85;93.95
5952;BME280;3001;42.622;23.194;2023-09-19T03:38:40;91644.38;;;16.85;95.20
5952;BME280;3001;42.622;23.194;2023-09-19T03:41:07;91647.66;;;16.82;95.84
5952;BME280;3001;42.622;23.194;2023-09-19T03:43:33;91645.09;;;18.43;90.65
5952;BME280;3001;42.622;23.194;2023-09-19T03:46:02;91655.09;;;19.15;86.00
5952;BME280;3001;42.622;23.194;2023-09-19T03:48:30;91661.44;;;19.29;85.00
5952;BME280;3001;42.622;23.194;2023-09-19T03:50:57;91668.94;;;18.97;85.63
5952;BME280;3001;42.622;23.194;2023-09-19T03:53:24;91670.22;;;19.18;84.96
5952;BME280;3001;42.622;23.194;2023-09-19T03:55:51;91673.19;;;19.17;84.05
5952;BME280;3001;42.622;23.194;2023-09-19T03:58:17;91661.63;;;19.21;83.79
5952;BME280;3001;42.622;23.194;2023-09-19T04:00:44;91662.91;;;19.12;84.67
5952;BME280;3001;42.622;23.194;2023-09-19T04:03:12;91668.16;;;19.12;84.66
5952;BME280;3001;42.622;23.194;2023-09-19T04:05:45;91677.00;;;19.34;83.12
5952;BME280;3001;42.622;23.194;2023-09-19T04:08:12;91667.56;;;19.33;80.74
5952;BME280;3001;42.622;23.194;2023-09-19T04:10:41;91685.84;;;19.11;82.10
5952;BME280;3001;42.622;23.194;2023-09-19T04:13:08;91687.19;;;19.05;81.94
5952;BME280;3001;42.622;23.194;2023-09-19T04:15:36;91690.09;;;19.00;81.33
5952;BME280;3001;42.622;23.194;2023-09-19T04:18:03;91682.03;;;18.93;81.67
5952;BME280;3001;42.622;23.194;2023-09-19T04:20:31;91683.41;;;19.03;82.63
5952;BME280;3001;42.622;23.194;2023-09-19T04:22:58;91671.56;;;18.97;83.70
5952;BME280;3001;42.622;23.194;2023-09-19T04:25:25;91672.69;;;18.80;85.01
5952;BME280;3001;42.622;23.194;2023-09-19T04:27:53;91670.66;;;18.74;86.69
5952;BME280;3001;42.622;23.194;2023-09-19T04:30:19;91665.56;;;18.65;86.73
5952;BME280;3001;42.622;23.194;2023-09-19T04:32:46;91660.78;;;18.86;86.36
5952;BME280;3001;42.622;23.194;2023-09-19T04:35:16;91656.78;;;19.08;83.82
5952;BME280;3001;42.622;23.194;2023-09-19T04:37:44;91659.00;;;19.06;83.70
5952;BME280;3001;42.622;23.194;2023-09-19T04:40:10;91654.66;;;19.13;83.00
5952;BME280;3001;42.622;23.194;2023-09-19T04:42:39;91649.91;;;19.19;82.38
5952;BME280;3001;42.622;23.194;2023-09-19T04:45:07;91647.44;;;19.26;83.15
5952;BME280;3001;42.622;23.194;2023-09-19T04:47:35;91647.88;;;19.27;83.29
5952;BME280;3001;42.622;23.194;2023-09-19T04:50:06;91645.88;;;19.40;83.34
5952;BME280;3001;42.622;23.194;2023-09-19T04:52:38;91644.34;;;19.39;84.08
5952;BME280;3001;42.622;23.194;2023-09-19T04:55:07;91648.94;;;19.42;84.63
5952;BME280;3001;42.622;23.194;2023-09-19T04:57:34;91646.72;;;19.44;84.61
5952;BME280;3001;42.622;23.194;2023-09-19T05:00:02;91652.06;;;19.47;85.27
5952;BME280;3001;42.622;23.194;2023-09-19T05:02:32;91654.03;;;19.69;84.60
5952;BME280;3001;42.622;23.194;2023-09-19T05:05:00;91644.78;;;19.60;85.38
5952;BME280;3001;42.622;23.194;2023-09-19T05:07:26;91644.09;;;19.63;86.08
5952;BME280;3001;42.622;23.194;2023-09-19T05:09:53;91647.97;;;19.69;85.80
5952;BME280;3001;42.622;23.194;2023-09-19T05:12:22;91655.06;;;19.84;85.60
5952;BME280;3001;42.622;23.194;2023-09-19T05:14:48;91651.25;;;20.19;83.66
5952;BME280;3001;42.622;23.194;2023-09-19T05:17:15;91656.19;;;20.21;82.66
5952;BME280;3001;42.622;23.194;2023-09-19T05:19:43;91642.59;;;20.19;82.93
5952;BME280;3001;42.622;23.194;2023-09-19T05:22:09;91647.19;;;20.44;81.56
5952;BME280;3001;42.622;23.194;2023-09-19T05:24:36;91645.09;;;20.12;82.48
5952;BME280;3001;42.622;23.194;2023-09-19T05:27:04;91643.06;;;20.47;81.04
5952;BME280;3001;42.622;23.194;2023-09-19T05:29:33;91644.50;;;20.63;80.80
5952;BME280;3001;42.622;23.194;2023-09-19T05:32:00;91641.88;;;20.63;80.27
5952;BME280;3001;42.622;23.194;2023-09-19T05:34:27;91645.91;;;20.80;79.18
5952;BME280;3001;42.622;23.194;2023-09-19T05:36:55;91641.28;;;20.73;79.41
5952;BME280;3001;42.622;23.194;2023-09-19T05:39:22;91642.16;;;20.81;79.04
5952;BME280;3001;42.622;23.194;2023-09-19T05:41:49;91637.16;;;20.76;79.84
5952;BME280;3001;42.622;23.194;2023-09-19T05:44:15;91629.19;;;20.72;80.61
5952;BME280;3001;42.622;23.194;2023-09-19T05:46:43;91639.22;;;20.86;80.71
5952;BME280;3001;42.622;23.194;2023-09-19T05:49:11;91635.44;;;20.83;81.45
5952;BME280;3001;42.622;23.194;2023-09-19T05:51:38;91635.22;;;20.95;81.53
5952;BME280;3001;42.622;23.194;2023-09-19T05:54:04;91637.69;;;21.07;81.78
5952;BME280;3001;42.622;23.194;2023-09-19T05:56:31;91635.88;;;21.11;82.16
5952;BME280;3001;42.622;23.194;2023-09-19T05:58:58;91632.59;;;20.95;81.70
5952;BME280;3001;42.622;23.194;2023-09-19T06:01:25;91629.00;;;21.07;81.49
5952;BME280;3001;42.622;23.194;2023-09-19T06:03:53;91631.69;;;21.10;81.18
5952;BME280;3001;42.622;23.194;2023-09-19T06:06:20;91636.88;;;21.29;79.55
5952;BME280;3001;42.622;23.194;2023-09-19T06:08:49;91630.06;;;21.28;79.83
5952;BME280;3001;42.622;23.194;2023-09-19T06:11:16;91634.28;;;21.32;79.49
5952;BME280;3001;42.622;23.194;2023-09-19T06:13:45;91630.31;;;21.45;78.02
5952;BME280;3001;42.622;23.194;2023-09-19T06:16:12;91637.19;;;21.53;78.44
5952;BME280;3001;42.622;23.194;2023-09-19T06:18:39;91628.97;;;21.58;77.00
5952;BME280;3001;42.622;23.194;2023-09-19T06:21:07;91627.16;;;21.62;77.40
5952;BME280;3001;42.622;23.194;2023-09-19T06:23:34;91633.91;;;21.60;77.58
5952;BME280;3001;42.622;23.194;2023-09-19T06:26:01;91624.59;;;21.69;77.98
5952;BME280;3001;42.622;23.194;2023-09-19T06:28:28;91622.94;;;21.87;77.37
5952;BME280;3001;42.622;23.194;2023-09-19T06:30:55;91623.19;;;21.75;77.38
5952;BME280;3001;42.622;23.194;2023-09-19T06:33:22;91629.22;;;21.76;78.13
5952;BME280;3001;42.622;23.194;2023-09-19T06:35:49;91625.13;;;21.82;78.02
5952;BME280;3001;42.622;23.194;2023-09-19T06:38:19;91625.19;;;21.85;78.41
5952;BME280;3001;42.622;23.194;2023-09-19T06:40:46;91630.41;;;21.82;77.43
5952;BME280;3001;42.622;23.194;2023-09-19T06:43:13;91632.31;;;21.81;77.23
5952;BME280;3001;42.622;23.194;2023-09-19T06:45:39;91639.19;;;21.86;77.70
5952;BME280;3001;42.622;23.194;2023-09-19T06:48:06;91646.41;;;21.89;78.14
5952;BME280;3001;42.622;23.194;2023-09-19T06:50:34;91646.53;;;22.03;77.37
5952;BME280;3001;42.622;23.194;2023-09-19T06:53:01;91654.31;;;22.22;76.08
5952;BME280;3001;42.622;23.194;2023-09-19T06:55:29;91656.97;;;22.22;74.33
5952;BME280;3001;42.622;23.194;2023-09-19T06:57:56;91659.91;;;22.13;75.27
5952;BME280;3001;42.622;23.194;2023-09-19T07:00:24;91654.38;;;22.25;75.19
5952;BME280;3001;42.622;23.194;2023-09-19T07:02:57;91652.56;;;22.33;74.11
5952;BME280;3001;42.622;23.194;2023-09-19T07:05:26;91655.94;;;22.30;74.08
5952;BME280;3001;42.622;23.194;2023-09-19T07:07:55;91650.91;;;22.51;74.61
5952;BME280;3001;42.622;23.194;2023-09-19T07:10:24;91649.28;;;22.43;75.98
5952;BME280;3001;42.622;23.194;2023-09-19T07:12:57;91641.13;;;22.58;75.34
5952;BME280;3001;42.622;23.194;2023-09-19T07:15:24;91656.09;;;22.84;74.81
5952;BME280;3001;42.622;23.194;2023-09-19T07:17:51;91650.16;;;22.93;74.34
5952;BME280;3001;42.622;23.194;2023-09-19T07:20:19;91656.63;;;22.99;73.73
5952;BME280;3001;42.622;23.194;2023-09-19T07:22:45;91659.66;;;23.01;73.78
5952;BME280;3001;42.622;23.194;2023-09-19T07:25:13;91668.78;;;23.04;73.72
5952;BME280;3001;42.622;23.194;2023-09-19T07:27:40;91670.34;;;23.08;74.17
5952;BME280;3001;42.622;23.194;2023-09-19T07:30:09;91668.94;;;23.18;73.46
5952;BME280;3001;42.622;23.194;2023-09-19T07:32:37;91658.69;;;23.16;71.79
5952;BME280;3001;42.622;23.194;2023-09-19T07:35:05;91663.84;;;23.49;70.54
5952;BME280;3001;42.622;23.194;2023-09-19T07:37:32;91672.56;;;23.50;70.97
5952;BME280;3001;42.622;23.194;2023-09-19T07:39:59;91670.13;;;23.24;72.48
5952;BME280;3001;42.622;23.194;2023-09-19T07:42:26;91672.44;;;23.36;71.57
5952;BME280;3001;42.622;23.194;2023-09-19T07:44:52;91671.34;;;23.40;72.47
5952;BME280;3001;42.622;23.194;2023-09-19T07:47:20;91664.56;;;23.46;70.62
5952;BME280;3001;42.622;23.194;2023-09-19T07:49:47;91663.84;;;23.49;71.43
5952;BME280;3001;42.622;23.194;2023-09-19T07:52:14;91663.44;;;23.44;71.99
5952;BME280;3001;42.622;23.194;2023-09-19T07:54:41;91663.47;;;23.51;72.49
5952;BME280;3001;42.622;23.194;2023-09-19T07:57:09;91671.59;;;23.79;71.65
5952;BME280;3001;42.622;23.194;2023-09-19T07:59:37;91668.31;;;22.52;76.76
5952;BME280;3001;42.622;23.194;2023-09-19T08:02:07;91662.72;;;22.27;77.19
5952;BME280;3001;42.622;23.194;2023-09-19T08:04:36;91652.31;;;22.41;77.37
5952;BME280;3001;42.622;23.194;2023-09-19T08:07:03;91656.97;;;22.55;77.39
5952;BME280;3001;42.622;23.194;2023-09-19T08:09:31;91647.97;;;22.63;77.59
5952;BME280;3001;42.622;23.194;2023-09-19T08:11:59;91650.13;;;22.50;78.37
5952;BME280;3001;42.622;23.194;2023-09-19T08:14:29;91642.38;;;22.71;76.96
5952;BME280;3001;42.622;23.194;2023-09-19T08:16:56;91632.84;;;22.63;77.40
5952;BME280;3001;42.622;23.194;2023-09-19T08:19:23;91632.66;;;22.86;77.28
5952;BME280;3001;42.622;23.194;2023-09-19T08:21:56;91640.28;;;22.94;76.29
5952;BME280;3001;42.622;23.194;2023-09-19T08:24:24;91645.09;;;22.78;75.50
5952;BME280;3001;42.622;23.194;2023-09-19T08:26:52;91645.94;;;22.89;76.39
5952;BME280;3001;42.622;23.194;2023-09-19T08:29:19;91654.66;;;22.90;76.57
5952;BME280;3001;42.622;23.194;2023-09-19T08:31:46;91660.06;;;23.03;76.01
5952;BME280;3001;42.622;23.194;2023-09-19T08:34:15;91658.19;;;23.04;73.09
5952;BME280;3001;42.622;23.194;2023-09-19T08:36:41;91663.69;;;23.25;73.86
5952;BME280;3001;42.622;23.194;2023-09-19T08:39:10;91659.03;;;23.15;72.58
5952;BME280;3001;42.622;23.194;2023-09-19T08:41:39;91662.97;;;23.35;74.09
5952;BME280;3001;42.622;23.194;2023-09-19T08:44:05;91648.59;;;23.32;73.59
5952;BME280;3001;42.622;23.194;2023-09-19T08:46:34;91649.66;;;23.24;72.74
5952;BME280;3001;42.622;23.194;2023-09-19T08:49:05;91660.25;;;23.21;73.70
5952;BME280;3001;42.622;23.194;2023-09-19T08:51:41;91648.91;;;23.27;72.71
5952;BME280;3001;42.622;23.194;2023-09-19T08:54:16;91644.09;;;23.40;73.20
5952;BME280;3001;42.622;23.194;2023-09-19T08:56:48;91648.63;;;23.39;71.49
5952;BME280;3001;42.622;23.194;2023-09-19T08:59:17;91643.41;;;23.53;71.68
5952;BME280;3001;42.622;23.194;2023-09-19T09:01:49;91654.09;;;23.67;71.59
5952;BME280;3001;42.622;23.194;2023-09-19T09:04:19;91646.13;;;23.67;70.95
5952;BME280;3001;42.622;23.194;2023-09-19T09:06:46;91648.84;;;23.74;72.15
5952;BME280;3001;42.622;23.194;2023-09-19T09:09:19;91647.06;;;23.96;73.06
5952;BME280;3001;42.622;23.194;2023-09-19T09:11:48;91647.84;;;23.96;72.51
5952;BME280;3001;42.622;23.194;2023-09-19T09:14:15;91644.44;;;23.99;72.77
5952;BME280;3001;42.622;23.194;2023-09-19T09:16:42;91643.72;;;24.06;72.35
5952;BME280;3001;42.622;23.194;2023-09-19T09:19:10;91641.06;;;24.13;71.67
5952;BME280;3001;42.622;23.194;2023-09-19T09:21:39;91630.88;;;24.18;70.35
5952;BME280;3001;42.622;23.194;2023-09-19T09:24:37;91630.94;;;24.46;69.06
5952;BME280;3001;42.622;23.194;2023-09-19T09:27:06;91623.72;;;24.50;68.56
5952;BME280;3001;42.622;23.194;2023-09-19T09:29:43;91626.38;;;24.50;67.83
5952;BME280;3001;42.622;23.194;2023-09-19T09:32:22;91628.66;;;24.48;67.72
5952;BME280;3001;42.622;23.194;2023-09-19T09:34:51;91606.31;;;24.56;67.51
5952;BME280;3001;42.622;23.194;2023-09-19T09:37:18;91618.47;;;24.57;67.88
5952;BME280;3001;42.622;23.194;2023-09-19T09:39:51;91612.06;;;24.72;67.35
5952;BME280;3001;42.622;23.194;2023-09-19T09:42:29;91612.44;;;24.91;65.64
5952;BME280;3001;42.622;23.194;2023-09-19T09:45:17;91617.75;;;24.98;66.13
5952;BME280;3001;42.622;23.194;2023-09-19T09:47:46;91617.34;;;25.07;65.37
5952;BME280;3001;42.622;23.194;2023-09-19T09:50:25;91618.13;;;25.14;66.09
5952;BME280;3001;42.622;23.194;2023-09-19T09:52:55;91616.63;;;25.06;66.86
5952;BME280;3001;42.622;23.194;2023-09-19T09:55:36;91610.91;;;25.15;65.07
5952;BME280;3001;42.622;23.194;2023-09-19T09:58:22;91607.88;;;25.27;63.85
5952;BME280;3001;42.622;23.194;2023-09-19T10:00:54;91608.97;;;25.61;64.40
5952;BME280;3001;42.622;23.194;2023-09-19T10:03:31;91594.22;;;25.18;64.83
5952;BME280;3001;42.622;23.194;2023-09-19T10:06:00;91608.63;;;25.31;64.94
5952;BME280;3001;42.622;23.194;2023-09-19T10:08:28;91599.13;;;25.40;66.18
5952;BME280;3001;42.622;23.194;2023-09-19T10:10:57;91594.94;;;25.46;65.95
5952;BME280;3001;42.622;23.194;2023-09-19T10:13:31;91594.53;;;25.58;65.27
5952;BME280;3001;42.622;23.194;2023-09-19T10:16:06;91597.97;;;25.59;66.49
5952;BME280;3001;42.622;23.194;2023-09-19T10:18:36;91602.13;;;25.63;65.78
5952;BME280;3001;42.622;23.194;2023-09-19T10:21:04;91611.25;;;25.66;65.94
5952;BME280;3001;42.622;23.194;2023-09-19T10:23:33;91610.47;;;25.72;66.73
5952;BME280;3001;42.622;23.194;2023-09-19T10:26:05;91605.50;;;25.78;66.78
5952;BME280;3001;42.622;23.194;2023-09-19T10:28:35;91602.09;;;25.74;68.38
5952;BME280;3001;42.622;23.194;2023-09-19T10:31:03;91606.66;;;25.87;67.10
5952;BME280;3001;42.622;23.194;2023-09-19T10:33:36;91613.88;;;25.94;65.41
5952;BME280;3001;42.622;23.194;2023-09-19T10:36:04;91605.50;;;25.88;66.49
5952;BME280;3001;42.622;23.194;2023-09-19T10:38:33;91602.09;;;25.84;64.10
5952;BME280;3001;42.622;23.194;2023-09-19T10:41:03;91605.13;;;25.79;64.79
5952;BME280;3001;42.622;23.194;2023-09-19T10:43:31;91598.34;;;25.57;66.42
5952;BME280;3001;42.622;23.194;2023-09-19T10:46:01;91585.72;;;25.89;65.82
5952;BME280;3001;42.622;23.194;2023-09-19T10:48:29;91580.81;;;25.67;66.59
5952;BME280;3001;42.622;23.194;2023-09-19T10:51:05;91578.88;;;25.81;66.99
5952;BME280;3001;42.622;23.194;2023-09-19T10:53:43;91578.88;;;25.81;67.13
5952;BME280;3001;42.622;23.194;2023-09-19T10:56:18;91584.81;;;26.27;66.70
5952;BME280;3001;42.622;23.194;2023-09-19T10:58:45;91583.63;;;26.32;66.16
5952;BME280;3001;42.622;23.194;2023-09-19T11:01:13;91577.56;;;26.28;65.75
5952;BME280;3001;42.622;23.194;2023-09-19T11:03:40;91579.38;;;26.41;65.79
5952;BME280;3001;42.622;23.194;2023-09-19T11:06:11;91577.53;;;26.31;65.62
5952;BME280;3001;42.622;23.194;2023-09-19T11:09:00;91582.09;;;26.34;65.84
5952;BME280;3001;42.622;23.194;2023-09-19T11:11:49;91570.28;;;26.32;66.27
5952;BME280;3001;42.622;23.194;2023-09-19T11:14:39;91577.13;;;26.33;65.57
5952;BME280;3001;42.622;23.194;2023-09-19T11:17:40;91574.50;;;26.29;65.08
5952;BME280;3001;42.622;23.194;2023-09-19T11:20:22;91576.31;;;26.46;64.51
5952;BME280;3001;42.622;23.194;2023-09-19T11:23:23;91572.88;;;26.53;64.45
5952;BME280;3001;42.622;23.194;2023-09-19T11:25:52;91564.91;;;26.49;64.12
5952;BME280;3001;42.622;23.194;2023-09-19T11:28:34;91566.81;;;26.49;65.54
5952;BME280;3001;42.622;23.194;2023-09-19T11:34:46;91553.66;;;26.78;63.92
5952;BME280;3001;42.622;23.194;2023-09-19T11:40:47;91546.78;;;26.81;63.91
5952;BME280;3001;42.622;23.194;2023-09-19T11:43:31;91543.75;;;26.79;62.56
5952;BME280;3001;42.622;23.194;2023-09-19T11:46:07;91538.03;;;26.77;64.51
5952;BME280;3001;42.622;23.194;2023-09-19T11:48:40;91543.28;;;26.91;64.50
5952;BME280;3001;42.622;23.194;2023-09-19T11:51:21;91541.34;;;26.91;63.23
5952;BME280;3001;42.622;23.194;2023-09-19T11:53:54;91538.25;;;27.00;62.38
5952;BME280;3001;42.622;23.194;2023-09-19T11:56:21;91535.75;;;27.23;62.54
5952;BME280;3001;42.622;23.194;2023-09-19T11:58:51;91533.16;;;27.16;63.62
5952;BME280;3001;42.622;23.194;2023-09-19T12:01:25;91536.28;;;27.11;63.85
5952;BME280;3001;42.622;23.194;2023-09-19T12:03:55;91541.06;;;27.26;63.70
5952;BME280;3001;42.622;23.194;2023-09-19T12:06:24;91526.59;;;27.27;63.30
5952;BME280;3001;42.622;23.194;2023-09-19T12:08:51;91531.06;;;27.37;62.47
5952;BME280;3001;42.622;23.194;2023-09-19T12:11:21;91528.97;;;27.18;61.77
5952;BME280;3001;42.622;23.194;2023-09-19T12:13:48;91522.44;;;27.23;62.18
5952;BME280;3001;42.622;23.194;2023-09-19T12:16:18;91522.97;;;27.48;62.26
5952;BME280;3001;42.622;23.194;2023-09-19T12:18:47;91516.22;;;27.70;58.07
5952;BME280;3001;42.622;23.194;2023-09-19T12:21:23;91509.03;;;27.97;57.90
5952;BME280;3001;42.622;23.194;2023-09-19T12:24:06;91503.19;;;28.09;59.49
5952;BME280;3001;42.622;23.194;2023-09-19T12:26:40;91501.09;;;28.20;58.52
5952;BME280;3001;42.622;23.194;2023-09-19T12:29:15;91499.97;;;28.17;58.25
5952;BME280;3001;42.622;23.194;2023-09-19T12:31:52;91493.28;;;28.36;54.87
5952;BME280;3001;42.622;23.194;2023-09-19T12:34:21;91490.91;;;28.41;54.75
5952;BME280;3001;42.622;23.194;2023-09-19T12:37:03;91490.97;;;28.38;55.99
5952;BME280;3001;42.622;23.194;2023-09-19T12:39:30;91486.00;;;28.36;56.32
5952;BME280;3001;42.622;23.194;2023-09-19T12:41:57;91490.59;;;28.36;55.35
5952;BME280;3001;42.622;23.194;2023-09-19T12:44:24;91488.63;;;28.66;56.64
5952;BME280;3001;42.622;23.194;2023-09-19T12:46:53;91489.59;;;28.53;58.15
5952;BME280;3001;42.622;23.194;2023-09-19T12:49:20;91492.75;;;28.70;57.86
5952;BME280;3001;42.622;23.194;2023-09-19T12:51:48;91494.81;;;28.59;57.27
5952;BME280;3001;42.622;23.194;2023-09-19T12:54:15;91496.38;;;28.57;57.48
5952;BME280;3001;42.622;23.194;2023-09-19T12:56:43;91496.03;;;28.78;58.55
5952;BME280;3001;42.622;23.194;2023-09-19T12:59:12;91481.59;;;28.75;55.23
5952;BME280;3001;42.622;23.194;2023-09-19T13:01:40;91477.41;;;28.74;56.36
5952;BME280;3001;42.622;23.194;2023-09-19T13:04:17;91486.81;;;28.82;57.08
5952;BME280;3001;42.622;23.194;2023-09-19T13:06:52;91478.84;;;28.79;57.48
5952;BME280;3001;42.622;23.194;2023-09-19T13:09:21;91490.38;;;28.99;53.38
5952;BME280;3001;42.622;23.194;2023-09-19T13:11:50;91485.75;;;29.03;54.72
5952;BME280;3001;42.622;23.194;2023-09-19T13:14:20;91473.41;;;29.28;54.29
5952;BME280;3001;42.622;23.194;2023-09-19T13:16:59;91469.81;;;29.38;53.15
5952;BME280;3001;42.622;23.194;2023-09-19T13:19:38;91468.94;;;29.45;54.87
5952;BME280;3001;42.622;23.194;2023-09-19T13:22:38;91466.81;;;29.56;54.59
5952;BME280;3001;42.622;23.194;2023-09-19T13:25:07;91457.38;;;29.28;53.61
5952;BME280;3001;42.622;23.194;2023-09-19T13:27:39;91460.13;;;29.25;55.57
5952;BME280;3001;42.622;23.194;2023-09-19T13:30:07;91463.34;;;29.36;55.23
5952;BME280;3001;42.622;23.194;2023-09-19T13:32:34;91461.56;;;29.52;54.67
5952;BME280;3001;42.622;23.194;2023-09-19T13:35:02;91468.22;;;29.21;55.15